Time;durP1;ratioP1;P1;durP2;ratioP2;P2;SDS_P1;SDS_P2;PMS_P1;PMS_P2;Temp;Humidity;BMP_temperature;BMP_pressure;BME280_temperature;BME280_humidity;BME280_pressure;Samples;Min_cycle;Max_cycle;Signal;HPM_P1;HPM_P2
2023/11/16 00:00:29;;;;;;;12.32;4.47;;;;;;;8.92;93.00;98348.06;5048049;28;20044;-72
2023/11/16 00:02:55;;;;;;;14.68;4.53;;;;;;;8.94;92.70;98351.34;5048876;28;20053;-73
2023/11/16 00:05:21;;;;;;;10.00;5.00;;;;;;;8.99;92.46;98348.78;5033347;28;20083;-74
2023/11/16 00:07:47;;;;;;;11.77;4.63;;;;;;;9.01;92.43;98354.75;5048511;28;20033;-72
2023/11/16 00:10:14;;;;;;;10.68;4.68;;;;;;;8.98;92.51;98347.16;5033363;28;20091;-73
2023/11/16 00:12:40;;;;;;;10.32;4.35;;;;;;;8.98;92.67;98357.91;5032111;28;20021;-73
2023/11/16 00:15:06;;;;;;;15.93;4.60;;;;;;;8.91;92.58;98349.94;5031717;28;20036;-73
2023/11/16 00:17:37;;;;;;;14.30;5.32;;;;;;;8.87;92.29;98337.19;5031584;28;20028;-74
2023/11/16 00:20:10;;;;;;;7.70;4.10;;;;;;;8.92;92.17;98342.69;5048473;28;20045;-74
2023/11/16 00:22:36;;;;;;;16.10;4.68;;;;;;;8.83;92.40;98328.78;5032855;28;20040;-74
2023/11/16 00:25:07;;;;;;;14.50;4.88;;;;;;;8.79;92.54;98324.94;5033070;28;20381;-74
2023/11/16 00:27:33;;;;;;;11.13;4.20;;;;;;;8.76;92.10;98329.94;5031350;28;20505;-73
2023/11/16 00:29:59;;;;;;;15.20;4.22;;;;;;;8.81;92.10;98340.81;5031735;28;20472;-73
2023/11/16 00:32:24;;;;;;;7.40;4.22;;;;;;;8.78;91.76;98335.88;5032935;28;20040;-74
2023/11/16 00:34:50;;;;;;;9.25;4.30;;;;;;;8.77;92.01;98340.47;5014930;28;20033;-73
2023/11/16 00:37:15;;;;;;;8.93;4.13;;;;;;;8.82;91.86;98337.09;5014935;28;20501;-74
2023/11/16 00:39:41;;;;;;;8.82;4.00;;;;;;;8.72;91.73;98323.41;5031250;28;20032;-72
2023/11/16 00:42:06;;;;;;;9.25;3.95;;;;;;;8.81;91.52;98343.50;5032844;28;20033;-73
2023/11/16 00:44:32;;;;;;;12.35;4.65;;;;;;;8.69;91.99;98339.94;5031392;28;20029;-73
2023/11/16 00:46:57;;;;;;;11.02;4.35;;;;;;;8.68;91.25;98341.03;5032282;28;20037;-73
2023/11/16 00:49:23;;;;;;;11.18;4.03;;;;;;;8.68;91.89;98341.03;5031251;28;20028;-73
2023/11/16 00:51:49;;;;;;;10.82;4.65;;;;;;;8.76;91.74;98348.72;5031394;28;20052;-72
2023/11/16 00:54:16;;;;;;;7.82;4.22;;;;;;;8.72;91.73;98332.28;5047872;28;20105;-73
2023/11/16 00:56:41;;;;;;;10.82;4.43;;;;;;;8.67;91.66;98328.63;5031196;28;20056;-72
2023/11/16 00:59:06;;;;;;;7.82;3.90;;;;;;;8.73;91.65;98336.59;5014237;28;20036;-74
2023/11/16 01:01:37;;;;;;;11.15;4.18;;;;;;;8.68;91.09;98341.81;5031349;28;20420;-74
2023/11/16 01:04:09;;;;;;;5.60;3.88;;;;;;;8.67;91.83;98328.63;5031211;28;20041;-74
2023/11/16 01:06:35;;;;;;;9.65;4.10;;;;;;;8.76;91.33;98335.31;5032568;28;20493;-73
2023/11/16 01:09:06;;;;;;;12.13;4.60;;;;;;;8.68;91.49;98331.06;5032097;28;20041;-73
2023/11/16 01:11:31;;;;;;;10.73;4.10;;;;;;;8.69;91.29;98348.00;5031153;28;20041;-72
2023/11/16 01:13:57;;;;;;;5.82;3.88;;;;;;;8.56;91.11;98334.78;5047872;28;20024;-75
2023/11/16 01:16:30;;;;;;;7.18;4.40;;;;;;;8.66;90.96;98354.66;5031881;28;20508;-73
2023/11/16 01:18:56;;;;;;;9.90;4.47;;;;;;;8.64;91.60;98355.91;5032608;28;20061;-74
2023/11/16 01:21:23;;;;;;;8.07;3.92;;;;;;;8.61;91.19;98356.41;5032917;28;20026;-73
2023/11/16 01:23:51;;;;;;;10.82;3.80;;;;;;;8.70;91.34;98357.72;5047935;28;20033;-74
2023/11/16 01:26:17;;;;;;;9.73;4.18;;;;;;;8.65;91.50;98357.56;5048552;28;20430;-73
2023/11/16 01:28:46;;;;;;;10.07;4.50;;;;;;;8.62;91.54;98364.22;5048279;28;20025;-73
2023/11/16 01:31:14;;;;;;;8.40;4.30;;;;;;;8.55;91.74;98346.56;5031574;28;20060;-74
2023/11/16 01:33:41;;;;;;;10.50;4.40;;;;;;;8.61;91.26;98351.03;5048418;28;20040;-74
2023/11/16 01:36:06;;;;;;;12.52;5.00;;;;;;;8.60;91.87;98346.69;5031896;28;20037;-73
2023/11/16 01:38:32;;;;;;;10.27;4.45;;;;;;;8.50;91.60;98344.56;5016065;28;20374;-73
2023/11/16 01:40:57;;;;;;;13.82;4.80;;;;;;;8.44;91.39;98333.91;5035831;28;20069;-74
2023/11/16 01:43:23;;;;;;;10.50;4.72;;;;;;;8.46;91.74;98347.91;5037319;28;20025;-74
2023/11/16 01:45:48;;;;;;;11.77;4.90;;;;;;;8.38;91.98;98358.97;5035585;28;20119;-74
2023/11/16 01:48:22;;;;;;;12.48;4.45;;;;;;;8.39;91.78;98353.38;5035420;28;20032;-72
2023/11/16 01:50:47;;;;;;;8.45;4.80;;;;;;;8.22;91.43;98326.31;5019422;28;20041;-74
2023/11/16 01:53:13;;;;;;;10.10;4.70;;;;;;;8.37;91.77;98349.28;5036638;28;20032;-74
2023/11/16 01:55:41;;;;;;;10.68;4.50;;;;;;;8.39;91.61;98364.13;5027719;28;20045;-74
2023/11/16 01:58:07;;;;;;;9.63;4.65;;;;;;;8.34;92.19;98356.75;5018994;28;20036;-73
2023/11/16 02:00:33;;;;;;;8.95;4.65;;;;;;;8.35;91.72;98358.38;5019333;28;20436;-74
2023/11/16 02:03:05;;;;;;;13.45;4.85;;;;;;;8.35;91.05;98347.63;5019305;28;20036;-73
2023/11/16 02:05:34;;;;;;;9.93;4.68;;;;;;;8.24;91.45;98334.13;5036095;28;20037;-73
2023/11/16 02:08:08;;;;;;;9.48;4.18;;;;;;;8.35;91.24;98341.47;5035155;28;20033;-74
2023/11/16 02:10:34;;;;;;;12.57;4.63;;;;;;;8.26;91.20;98327.53;5035182;28;20040;-74
2023/11/16 02:13:00;;;;;;;12.05;4.53;;;;;;;8.32;90.71;98342.75;5018803;28;20633;-74
2023/11/16 02:15:29;;;;;;;9.73;4.32;;;;;;;8.28;90.84;98344.22;5034869;28;20033;-74
2023/11/16 02:17:55;;;;;;;12.90;4.93;;;;;;;8.23;90.94;98354.81;5034502;28;20049;-73
2023/11/16 02:20:23;;;;;;;10.05;4.55;;;;;;;8.24;90.76;98351.06;5034602;28;20025;-73
2023/11/16 02:22:51;;;;;;;13.55;4.80;;;;;;;8.23;90.90;98348.59;5034179;28;20029;-73
2023/11/16 02:25:18;;;;;;;8.13;4.32;;;;;;;8.22;91.08;98353.16;5017608;28;20029;-72
2023/11/16 02:27:44;;;;;;;11.68;4.60;;;;;;;8.11;90.43;98335.13;5033538;28;20021;-73
2023/11/16 02:30:10;;;;;;;9.27;4.53;;;;;;;8.04;90.82;98333.56;5017371;28;20030;-73
2023/11/16 02:32:35;;;;;;;11.63;4.57;;;;;;;7.96;90.58;98321.28;5033211;28;20025;-72
2023/11/16 02:35:02;;;;;;;12.82;4.20;;;;;;;8.03;90.50;98331.91;5013930;28;20034;-72
2023/11/16 02:37:28;;;;;;;9.45;3.97;;;;;;;8.04;90.83;98339.75;5025800;28;20075;-73
2023/11/16 02:39:53;;;;;;;11.38;4.22;;;;;;;7.96;90.60;98342.72;5029071;28;20034;-71
2023/11/16 02:42:19;;;;;;;10.32;4.10;;;;;;;7.86;90.46;98326.38;5008875;28;20022;-70
2023/11/16 02:44:48;;;;;;;13.35;4.07;;;;;;;7.87;90.52;98332.53;5033749;28;20300;-70
2023/11/16 02:47:14;;;;;;;9.10;4.20;;;;;;;7.84;90.17;98339.16;5033201;28;20025;-70
2023/11/16 02:49:42;;;;;;;11.02;4.35;;;;;;;7.79;90.73;98335.50;4997366;28;20180;-71
2023/11/16 02:52:07;;;;;;;10.88;4.10;;;;;;;7.74;90.60;98344.22;5025539;28;20045;-72
2023/11/16 02:54:33;;;;;;;7.70;3.97;;;;;;;7.69;91.15;98344.06;5033028;28;20112;-70
2023/11/16 02:56:59;;;;;;;10.93;4.40;;;;;;;7.74;90.03;98338.88;5023398;28;20045;-70
2023/11/16 02:59:25;;;;;;;6.55;4.20;;;;;;;7.64;90.39;98350.09;5032903;28;20034;-70
2023/11/16 03:01:50;;;;;;;9.98;3.97;;;;;;;7.65;90.53;98345.56;5016619;28;20032;-70
2023/11/16 03:04:16;;;;;;;11.65;4.53;;;;;;;7.70;90.05;98347.56;5013214;28;20038;-71
2023/11/16 03:06:41;;;;;;;8.65;4.22;;;;;;;7.64;89.79;98343.91;5024921;28;20033;-70
2023/11/16 03:09:09;;;;;;;9.73;3.95;;;;;;;7.61;90.37;98312.19;5032624;28;20037;-70
2023/11/16 03:11:35;;;;;;;12.52;4.03;;;;;;;7.74;89.56;98332.69;5034091;28;20030;-68
2023/11/16 03:14:02;;;;;;;10.63;5.05;;;;;;;7.76;90.01;98328.75;5033832;28;20064;-69
2023/11/16 03:16:28;;;;;;;9.50;3.90;;;;;;;7.74;89.38;98332.69;5034003;28;20029;-70
2023/11/16 03:18:53;;;;;;;11.82;4.50;;;;;;;7.68;90.41;98345.09;5032347;28;20029;-69
2023/11/16 03:21:19;;;;;;;10.80;4.47;;;;;;;7.64;89.40;98341.22;5032756;28;20025;-69
2023/11/16 03:23:45;;;;;;;9.75;4.43;;;;;;;7.61;90.04;98345.19;5016083;28;20041;-70
2023/11/16 03:26:10;;;;;;;8.68;4.25;;;;;;;7.57;89.46;98348.53;5016062;28;20099;-70
2023/11/16 03:28:36;;;;;;;11.82;4.10;;;;;;;7.52;90.04;98345.69;5033376;28;20091;-69
2023/11/16 03:31:05;;;;;;;9.40;4.18;;;;;;;7.50;90.05;98337.03;5032384;28;20035;-70
2023/11/16 03:33:31;;;;;;;9.73;4.53;;;;;;;7.55;90.03;98345.25;5033516;28;20037;-71
2023/11/16 03:35:56;;;;;;;9.45;3.97;;;;;;;7.50;89.90;98342.41;5033708;28;20386;-72
2023/11/16 03:38:22;;;;;;;11.65;4.40;;;;;;;7.40;89.38;98336.72;5032000;28;20516;-72
2023/11/16 03:40:50;;;;;;;9.75;4.15;;;;;;;7.41;88.99;98333.03;5033432;28;20485;-71
2023/11/16 03:43:16;;;;;;;9.48;4.18;;;;;;;7.45;89.70;98344.91;5033479;28;20033;-70
2023/11/16 03:45:41;;;;;;;8.18;4.60;;;;;;;7.36;89.31;98330.19;5032186;28;20040;-70
2023/11/16 03:48:08;;;;;;;7.28;4.15;;;;;;;7.39;89.32;98340.47;5011947;28;20490;-71
2023/11/16 03:50:34;;;;;;;10.57;4.32;;;;;;;7.40;88.78;98339.41;5025332;28;20025;-70
2023/11/16 03:52:59;;;;;;;10.02;5.03;;;;;;;7.33;89.14;98336.78;5012006;28;20417;-71
2023/11/16 03:55:25;;;;;;;14.85;4.88;;;;;;;7.25;89.17;98322.88;5031769;28;20401;-72
2023/11/16 03:57:50;;;;;;;13.38;5.18;;;;;;;7.29;88.61;98340.13;5038467;28;20072;-70
2023/11/16 04:00:17;;;;;;;10.25;5.10;;;;;;;7.19;89.06;98323.75;5031690;28;20500;-69
2023/11/16 04:02:42;;;;;;;14.82;6.65;;;;;;;7.17;88.66;98331.16;5031221;28;20087;-72
2023/11/16 04:05:09;;;;;;;11.70;5.68;;;;;;;7.11;88.56;98334.72;5012357;28;20539;-70
2023/11/16 04:07:34;;;;;;;11.90;5.60;;;;;;;7.12;88.48;98334.50;5029519;28;20040;-70
2023/11/16 04:10:00;;;;;;;9.13;5.22;;;;;;;7.09;88.41;98329.59;5006452;28;20021;-70
2023/11/16 04:12:26;;;;;;;8.60;5.15;;;;;;;7.05;88.92;98325.69;5031332;28;20040;-70
2023/11/16 04:14:51;;;;;;;12.85;4.60;;;;;;;7.08;88.24;98329.81;5015022;28;20025;-72
2023/11/16 04:17:16;;;;;;;9.05;5.15;;;;;;;7.06;87.89;98323.84;5031217;28;20087;-69
2023/11/16 04:19:42;;;;;;;13.30;5.30;;;;;;;7.09;87.96;98332.28;5031561;28;20026;-71
2023/11/16 04:22:07;;;;;;;9.88;5.57;;;;;;;7.05;88.23;98308.84;5015027;28;20037;-71
2023/11/16 04:24:42;;;;;;;9.90;5.30;;;;;;;7.14;87.96;98310.19;5015131;28;20029;-70
2023/11/16 04:27:07;;;;;;;10.07;5.82;;;;;;;7.16;88.46;98318.84;5032130;28;20029;-71
2023/11/16 04:29:34;;;;;;;9.23;4.75;;;;;;;7.23;88.47;98319.59;5014991;28;20017;-70
2023/11/16 04:31:59;;;;;;;8.85;5.28;;;;;;;7.19;88.78;98307.69;5047755;28;20038;-72
2023/11/16 04:34:27;;;;;;;16.40;5.70;;;;;;;7.29;89.24;98313.34;5031500;28;20108;-70
2023/11/16 04:36:53;;;;;;;12.73;6.22;;;;;;;7.39;89.53;98311.81;5031286;28;20056;-70
2023/11/16 04:39:18;;;;;;;11.05;5.97;;;;;;;7.41;88.73;98304.38;5030161;28;20033;-71
2023/11/16 04:41:47;;;;;;;13.43;6.50;;;;;;;7.39;89.34;98286.88;5030999;28;20029;-71
2023/11/16 04:44:12;;;;;;;13.18;7.38;;;;;;;7.41;89.41;98285.63;5031039;28;20535;-71
2023/11/16 04:46:46;;;;;;;10.13;6.20;;;;;;;7.40;89.04;98283.16;5031261;28;20037;-71
2023/11/16 04:49:12;;;;;;;12.68;7.80;;;;;;;7.42;89.53;98292.59;5031407;28;20030;-71
2023/11/16 04:51:40;;;;;;;15.43;7.60;;;;;;;7.42;89.87;98299.84;5033018;28;20032;-69
2023/11/16 04:54:06;;;;;;;14.25;9.48;;;;;;;7.32;90.29;98299.53;5030586;28;20060;-72
2023/11/16 04:56:32;;;;;;;17.77;8.75;;;;;;;7.19;89.31;98302.34;5027597;28;20022;-71
2023/11/16 04:58:57;;;;;;;20.85;8.50;;;;;;;7.20;89.77;98298.59;4996113;28;20508;-70
2023/11/16 05:01:23;;;;;;;11.45;6.80;;;;;;;7.22;90.14;98285.81;5032083;28;20032;-71
2023/11/16 05:03:49;;;;;;;17.02;9.23;;;;;;;7.26;89.27;98284.34;5047105;28;20041;-70
2023/11/16 05:06:14;;;;;;;14.95;9.35;;;;;;;7.28;88.96;98269.66;5031880;28;20017;-70
2023/11/16 05:08:43;;;;;;;18.67;11.02;;;;;;;7.36;88.70;98276.59;5031323;28;20040;-72
2023/11/16 05:11:08;;;;;;;13.18;9.15;;;;;;;7.34;89.42;98284.03;5030518;28;20065;-71
2023/11/16 05:13:34;;;;;;;23.55;11.32;;;;;;;7.35;89.45;98291.84;5029673;28;20490;-72
2023/11/16 05:16:00;;;;;;;15.93;8.82;;;;;;;7.28;89.88;98284.94;5030543;28;20486;-72
2023/11/16 05:18:26;;;;;;;17.10;11.18;;;;;;;7.25;88.85;98282.69;5030188;28;20056;-72
2023/11/16 05:20:53;;;;;;;33.83;15.73;;;;;;;7.26;88.87;98289.69;5030530;28;20493;-72
2023/11/16 05:23:19;;;;;;;28.88;14.40;;;;;;;7.38;88.85;98295.94;5030332;28;20045;-73
2023/11/16 05:25:44;;;;;;;25.58;13.45;;;;;;;7.33;89.38;98280.53;5030642;28;20029;-73
2023/11/16 05:28:11;;;;;;;11.77;7.80;;;;;;;7.45;88.99;98283.31;5031135;28;20049;-71
2023/11/16 05:30:37;;;;;;;17.23;7.57;;;;;;;7.47;89.52;98279.34;5013799;28;20028;-75
2023/11/16 05:33:03;;;;;;;12.27;8.07;;;;;;;7.49;90.20;98274.59;5013694;28;20045;-71
2023/11/16 05:35:32;;;;;;;14.55;6.75;;;;;;;7.45;90.25;98272.59;5029951;28;20041;-74
2023/11/16 05:37:58;;;;;;;10.95;7.57;;;;;;;7.52;89.44;98270.66;5029803;28;20044;-71
2023/11/16 05:40:26;;;;;;;16.77;8.10;;;;;;;7.53;89.94;98266.94;5030028;28;20033;-71
2023/11/16 05:42:52;;;;;;;10.73;7.57;;;;;;;7.51;90.34;98255.63;5013507;28;20041;-71
2023/11/16 05:45:18;;;;;;;15.10;7.75;;;;;;;7.49;90.52;98252.38;5046479;28;20029;-70
2023/11/16 05:47:43;;;;;;;19.92;10.30;;;;;;;7.51;90.33;98263.66;5031052;28;20397;-71
2023/11/16 05:50:13;;;;;;;17.65;10.82;;;;;;;7.44;90.05;98246.84;5030039;28;20100;-72
2023/11/16 05:52:38;;;;;;;16.50;8.43;;;;;;;7.41;90.28;98241.94;5031129;28;20112;-71
2023/11/16 05:55:04;;;;;;;19.45;11.27;;;;;;;7.50;90.91;98253.97;5024546;28;20120;-71
2023/11/16 05:57:30;;;;;;;18.75;11.93;;;;;;;7.55;90.37;98254.13;5029497;28;20397;-71
2023/11/16 05:59:56;;;;;;;20.42;10.02;;;;;;;7.45;90.43;98243.09;5029673;28;20025;-72
2023/11/16 06:02:22;;;;;;;15.48;8.30;;;;;;;7.61;90.98;98269.31;5030954;28;20455;-72
2023/11/16 06:04:48;;;;;;;15.70;7.32;;;;;;;7.52;90.07;98265.28;5013536;28;20033;-72
2023/11/16 06:07:14;;;;;;;12.48;7.32;;;;;;;7.62;90.53;98276.31;5012798;28;20040;-71
2023/11/16 06:09:40;;;;;;;13.80;8.55;;;;;;;7.60;89.89;98259.66;5029961;28;20018;-72
2023/11/16 06:12:06;;;;;;;14.15;6.80;;;;;;;7.70;90.59;98262.63;5029856;28;20038;-72
2023/11/16 06:14:32;;;;;;;13.93;7.65;;;;;;;7.70;90.28;98251.91;5031252;28;20017;-73
2023/11/16 06:16:58;;;;;;;10.23;6.70;;;;;;;7.70;90.80;98261.81;5030065;28;20482;-72
2023/11/16 06:19:23;;;;;;;13.73;6.85;;;;;;;7.73;89.92;98250.63;5029908;28;20041;-71
2023/11/16 06:21:48;;;;;;;15.02;7.70;;;;;;;7.63;90.15;98251.16;5029894;28;20034;-71
2023/11/16 06:24:14;;;;;;;14.70;8.32;;;;;;;7.66;90.38;98240.81;5030823;28;20500;-71
2023/11/16 06:26:41;;;;;;;17.08;8.95;;;;;;;7.72;90.63;98249.81;5033479;28;20037;-72
2023/11/16 06:29:07;;;;;;;15.50;8.23;;;;;;;7.73;91.03;98254.13;5032958;28;20497;-71
2023/11/16 06:31:32;;;;;;;14.88;9.10;;;;;;;7.65;90.76;98243.72;5033233;28;20044;-71
2023/11/16 06:33:57;;;;;;;18.80;8.13;;;;;;;7.68;90.80;98248.59;5034483;28;20100;-73
2023/11/16 06:36:24;;;;;;;13.15;8.68;;;;;;;7.71;90.94;98256.22;5033090;28;20037;-72
2023/11/16 06:38:49;;;;;;;17.45;8.80;;;;;;;7.69;91.31;98255.63;5033789;28;20030;-70
2023/11/16 06:41:16;;;;;;;18.10;10.05;;;;;;;7.71;91.41;98261.56;5034121;28;20041;-71
2023/11/16 06:43:41;;;;;;;16.85;8.63;;;;;;;7.75;90.69;98254.72;5013247;28;20026;-71
2023/11/16 06:46:12;;;;;;;47.00;30.40;;;;;;;7.70;90.82;98246.56;5029291;28;20120;-72
2023/11/16 06:48:38;;;;;;;18.15;11.93;;;;;;;7.75;90.40;98253.91;5024954;28;20400;-73
2023/11/16 06:51:06;;;;;;;19.38;8.32;;;;;;;7.74;90.44;98246.91;4994662;28;20022;-71
2023/11/16 06:53:32;;;;;;;16.55;8.35;;;;;;;7.75;91.10;98249.34;5032309;28;20044;-72
2023/11/16 06:55:57;;;;;;;11.85;7.53;;;;;;;7.63;90.70;98219.00;5015439;28;20025;-72
2023/11/16 06:58:23;;;;;;;11.20;7.65;;;;;;;7.72;90.45;98228.38;5032172;28;20460;-72
2023/11/16 07:00:51;;;;;;;15.57;7.65;;;;;;;7.71;90.56;98240.13;5032792;28;20021;-71
2023/11/16 07:03:16;;;;;;;13.98;8.18;;;;;;;7.61;90.77;98219.22;5031925;28;20095;-71
2023/11/16 07:05:42;;;;;;;13.20;7.80;;;;;;;7.68;90.57;98217.28;5032147;28;20037;-71
2023/11/16 07:08:08;;;;;;;14.63;7.47;;;;;;;7.73;90.47;98216.59;5033649;28;20037;-72
2023/11/16 07:10:34;;;;;;;16.20;8.38;;;;;;;7.80;91.18;98229.91;5032478;28;20032;-72
2023/11/16 07:13:03;;;;;;;14.85;8.77;;;;;;;7.82;90.26;98222.47;5033699;28;20063;-71
2023/11/16 07:15:28;;;;;;;15.25;8.40;;;;;;;7.86;90.60;98219.13;5048630;28;20049;-71
2023/11/16 07:17:54;;;;;;;13.80;7.50;;;;;;;7.84;90.50;98215.81;5033504;28;20061;-72
2023/11/16 07:20:21;;;;;;;12.77;8.07;;;;;;;7.94;89.90;98240.25;5032202;28;20057;-72
2023/11/16 07:22:47;;;;;;;16.73;10.70;;;;;;;7.90;90.54;98231.03;5032209;28;20026;-73
2023/11/16 07:25:13;;;;;;;19.13;10.25;;;;;;;7.99;89.92;98248.44;5026727;28;20550;-72
2023/11/16 07:27:39;;;;;;;11.70;7.30;;;;;;;7.97;90.64;98234.44;5023628;28;20036;-73
2023/11/16 07:30:05;;;;;;;17.90;7.68;;;;;;;8.09;90.45;98245.22;5030656;28;20389;-72
2023/11/16 07:32:30;;;;;;;17.13;9.48;;;;;;;8.14;89.94;98238.13;5014236;28;20100;-72
2023/11/16 07:34:56;;;;;;;18.25;7.75;;;;;;;8.16;89.77;98252.13;5015180;28;20021;-71
2023/11/16 07:37:22;;;;;;;12.10;7.68;;;;;;;8.21;89.46;98244.19;5031888;28;20135;-72
2023/11/16 07:39:47;;;;;;;12.15;6.78;;;;;;;8.24;89.64;98241.06;5032171;28;20061;-73
2023/11/16 07:42:13;;;;;;;26.58;14.80;;;;;;;8.26;89.44;98241.69;5032986;28;20064;-73
2023/11/16 07:44:41;;;;;;;20.45;12.98;;;;;;;8.20;89.82;98231.84;5029280;28;20057;-72
2023/11/16 07:47:08;;;;;;;16.25;8.80;;;;;;;8.24;89.37;98243.75;5006384;28;20046;-72
2023/11/16 07:49:35;;;;;;;29.92;19.95;;;;;;;8.24;89.16;98227.66;5028367;28;20108;-72
2023/11/16 07:52:01;;;;;;;22.63;14.35;;;;;;;8.34;89.33;98233.31;5030891;28;20052;-72
2023/11/16 07:54:26;;;;;;;30.75;15.98;;;;;;;8.39;89.30;98223.75;5031810;28;20025;-72
2023/11/16 07:56:55;;;;;;;42.15;23.95;;;;;;;8.30;89.48;98220.59;5028418;28;20485;-73
2023/11/16 07:59:25;;;;;;;52.15;32.72;;;;;;;8.44;89.62;98226.56;5029075;28;20087;-72
2023/11/16 08:01:55;;;;;;;27.67;17.10;;;;;;;8.42;89.06;98226.00;5028600;28;20033;-72
2023/11/16 08:04:25;;;;;;;16.58;9.65;;;;;;;8.43;89.35;98225.75;5031239;28;20033;-73
2023/11/16 08:06:54;;;;;;;17.98;10.48;;;;;;;8.42;88.79;98229.50;5015403;28;20112;-72
2023/11/16 08:09:34;;;;;;;13.10;8.23;;;;;;;8.42;88.93;98223.31;5031196;28;20359;-72
2023/11/16 08:12:03;;;;;;;25.38;15.45;;;;;;;8.35;89.22;98207.31;5031528;28;20494;-72
2023/11/16 08:14:31;;;;;;;13.23;8.98;;;;;;;8.48;88.45;98217.00;5031370;28;20022;-71
2023/11/16 08:16:58;;;;;;;9.82;5.88;;;;;;;8.48;88.40;98211.63;5031362;28;20432;-72
2023/11/16 08:19:26;;;;;;;14.65;7.90;;;;;;;8.47;88.13;98207.34;5030943;28;20025;-73
2023/11/16 08:21:55;;;;;;;16.95;8.18;;;;;;;8.51;88.53;98209.31;4998349;28;20025;-74
2023/11/16 08:24:24;;;;;;;16.23;7.80;;;;;;;8.53;88.19;98198.34;5012578;28;20414;-72
2023/11/16 08:26:50;;;;;;;17.13;8.63;;;;;;;8.64;88.24;98210.97;5031455;28;20087;-73
2023/11/16 08:29:16;;;;;;;18.88;8.93;;;;;;;8.69;87.62;98203.03;5032021;28;20021;-72
2023/11/16 08:31:44;;;;;;;23.20;12.25;;;;;;;8.64;87.80;98189.47;5029958;28;20033;-72
2023/11/16 08:34:10;;;;;;;28.10;14.32;;;;;;;8.69;87.63;98185.06;5030842;28;20155;-72
2023/11/16 08:36:36;;;;;;;17.38;11.02;;;;;;;8.80;87.32;98194.16;5031324;28;20061;-72
2023/11/16 08:39:05;;;;;;;15.15;8.50;;;;;;;8.86;87.24;98194.06;5023804;28;20080;-72
2023/11/16 08:41:33;;;;;;;10.20;6.68;;;;;;;8.87;87.15;98176.06;5012762;28;20044;-73
2023/11/16 08:44:01;;;;;;;12.27;5.40;;;;;;;8.93;86.87;98167.09;5032044;28;20528;-73
2023/11/16 08:46:31;;;;;;;10.65;5.03;;;;;;;8.93;87.11;98164.41;5030856;28;20041;-72
2023/11/16 08:48:57;;;;;;;12.65;4.80;;;;;;;9.03;86.99;98172.69;5024289;28;20036;-73
2023/11/16 08:51:23;;;;;;;12.50;5.28;;;;;;;9.02;86.54;98160.31;5030126;28;20516;-72
2023/11/16 08:53:50;;;;;;;12.30;4.72;;;;;;;9.06;86.65;98166.84;5030090;28;20069;-73
2023/11/16 08:56:16;;;;;;;9.18;4.85;;;;;;;9.13;86.17;98167.53;5030081;28;20029;-72
2023/11/16 08:58:47;;;;;;;7.80;5.25;;;;;;;9.08;86.24;98156.66;5030474;28;20481;-74
2023/11/16 09:01:16;;;;;;;10.25;4.80;;;;;;;9.16;86.33;98164.38;5040584;28;20033;-72
2023/11/16 09:03:45;;;;;;;12.65;5.80;;;;;;;9.14;86.68;98161.13;5030580;28;20079;-72
2023/11/16 09:06:15;;;;;;;12.35;5.40;;;;;;;9.13;86.16;98166.72;5030787;28;20056;-72
2023/11/16 09:08:42;;;;;;;8.80;5.18;;;;;;;9.06;86.24;98164.16;5030244;28;20102;-73
2023/11/16 09:11:08;;;;;;;12.07;6.43;;;;;;;9.14;86.51;98169.19;5032014;28;20385;-72
2023/11/16 09:13:33;;;;;;;10.18;5.90;;;;;;;9.13;85.71;98155.97;5012988;28;20485;-72
2023/11/16 09:15:59;;;;;;;11.30;5.78;;;;;;;9.23;86.18;98151.63;5030332;28;20493;-72
2023/11/16 09:18:27;;;;;;;11.07;6.10;;;;;;;9.22;85.72;98147.31;5029521;28;20037;-72
2023/11/16 09:20:56;;;;;;;10.20;5.82;;;;;;;9.34;86.06;98158.84;5014000;28;20028;-71
2023/11/16 09:23:23;;;;;;;12.25;6.00;;;;;;;9.36;86.12;98159.44;5030866;28;20030;-73
2023/11/16 09:25:48;;;;;;;11.75;5.82;;;;;;;9.39;85.92;98150.06;5030654;28;20028;-72
2023/11/16 09:28:14;;;;;;;13.90;6.20;;;;;;;9.46;85.81;98143.50;5012303;28;20405;-73
2023/11/16 09:30:39;;;;;;;8.95;5.30;;;;;;;9.44;85.88;98140.25;5029856;28;20010;-73
2023/11/16 09:33:08;;;;;;;8.60;5.30;;;;;;;9.42;85.87;98134.31;5029747;28;20037;-73
2023/11/16 09:35:34;;;;;;;12.23;5.30;;;;;;;9.40;85.87;98136.41;5029659;28;20389;-73
2023/11/16 09:38:01;;;;;;;8.40;4.75;;;;;;;9.32;86.07;98144.84;5011751;28;20091;-72
2023/11/16 09:40:30;;;;;;;6.28;3.83;;;;;;;9.32;86.08;98144.00;5030904;28;20037;-73
2023/11/16 09:43:00;;;;;;;6.78;4.68;;;;;;;9.09;85.90;98130.63;5030304;28;20049;-73
2023/11/16 09:45:31;;;;;;;7.18;4.55;;;;;;;9.07;85.38;98130.88;5028457;28;20041;-72
2023/11/16 09:47:59;;;;;;;9.68;4.70;;;;;;;9.01;85.97;98126.44;5027834;28;20029;-72
2023/11/16 09:50:26;;;;;;;4.78;3.65;;;;;;;9.09;85.22;98118.03;5028700;28;20091;-73
2023/11/16 09:52:55;;;;;;;8.23;4.28;;;;;;;9.08;85.42;98134.38;5028796;28;20107;-72
2023/11/16 09:55:21;;;;;;;6.93;4.03;;;;;;;9.11;85.04;98126.66;5029174;28;20044;-73
2023/11/16 09:57:52;;;;;;;7.53;4.60;;;;;;;9.08;85.12;98115.59;5028979;28;20033;-72
2023/11/16 10:00:18;;;;;;;6.38;3.90;;;;;;;9.04;84.85;98107.16;5031264;28;20037;-71
2023/11/16 10:02:45;;;;;;;8.40;4.25;;;;;;;9.26;84.57;98113.56;5032982;28;20017;-71
2023/11/16 10:05:22;;;;;;;5.47;3.75;;;;;;;9.33;84.35;98103.47;5033343;28;20041;-71
2023/11/16 10:07:51;;;;;;;8.57;5.00;;;;;;;9.50;84.61;98098.97;5032386;28;20041;-72
2023/11/16 10:10:18;;;;;;;6.15;4.00;;;;;;;9.71;83.75;98094.78;5033159;28;20025;-72
2023/11/16 10:12:49;;;;;;;7.90;5.00;;;;;;;9.81;83.51;98083.41;5032896;28;20037;-71
2023/11/16 10:15:20;;;;;;;6.47;4.20;;;;;;;9.95;83.11;98079.34;5033760;28;20042;-72
2023/11/16 10:17:46;;;;;;;6.43;4.00;;;;;;;9.91;82.89;98049.44;5032611;28;20037;-71
2023/11/16 10:20:13;;;;;;;6.95;4.50;;;;;;;10.13;82.73;98060.28;5008335;28;20028;-72
2023/11/16 10:22:41;;;;;;;6.65;4.15;;;;;;;10.21;82.15;98049.13;5031653;28;20037;-72
2023/11/16 10:25:10;;;;;;;10.63;6.75;;;;;;;10.29;82.02;98054.13;5032280;28;20044;-72
2023/11/16 10:27:36;;;;;;;14.52;10.90;;;;;;;10.29;81.49;98046.84;5031084;28;20389;-71
2023/11/16 10:30:04;;;;;;;8.13;4.63;;;;;;;10.20;81.30;98028.66;5031690;28;20013;-71
2023/11/16 10:32:30;;;;;;;9.10;4.13;;;;;;;10.21;81.63;98041.06;5032467;28;20160;-71
2023/11/16 10:34:56;;;;;;;7.35;4.35;;;;;;;10.27;81.78;98042.75;5033835;28;20112;-71
2023/11/16 10:37:25;;;;;;;11.45;6.00;;;;;;;10.30;81.58;98029.63;5014779;28;20409;-74
2023/11/16 10:39:51;;;;;;;9.15;4.43;;;;;;;10.34;80.95;98035.34;5033839;28;20026;-71
2023/11/16 10:42:18;;;;;;;8.80;3.85;;;;;;;10.28;81.25;98026.38;5032834;28;20501;-71
2023/11/16 10:44:45;;;;;;;9.95;4.03;;;;;;;10.29;81.33;98016.44;5030122;28;20017;-71
2023/11/16 10:47:11;;;;;;;6.70;4.03;;;;;;;10.34;80.95;98005.72;5029675;28;20045;-72
2023/11/16 10:49:38;;;;;;;6.65;3.35;;;;;;;10.21;80.84;97992.63;5014921;28;20647;-71
2023/11/16 10:52:05;;;;;;;8.43;3.38;;;;;;;10.17;80.62;97986.94;5023419;28;20053;-72
2023/11/16 10:54:32;;;;;;;8.82;3.78;;;;;;;10.13;80.71;97984.94;5032686;28;20256;-71
2023/11/16 10:56:58;;;;;;;5.43;3.20;;;;;;;9.78;80.23;97938.69;5032884;28;20034;-72
2023/11/16 10:59:27;;;;;;;14.18;6.55;;;;;;;9.90;80.00;97968.97;5032471;28;20481;-72
2023/11/16 11:01:54;;;;;;;8.68;3.00;;;;;;;9.71;79.95;97917.31;5032836;28;20049;-71
2023/11/16 11:04:19;;;;;;;8.18;3.30;;;;;;;10.08;79.69;97960.66;5016345;28;20112;-72
2023/11/16 11:06:49;;;;;;;9.40;4.07;;;;;;;10.10;79.72;97951.28;5032028;28;20109;-71
2023/11/16 11:09:15;;;;;;;5.70;3.20;;;;;;;10.10;80.11;97942.38;5036274;28;20017;-71
2023/11/16 11:11:43;;;;;;;5.22;2.80;;;;;;;10.11;79.35;97930.53;5032431;28;20071;-71
2023/11/16 11:14:10;;;;;;;5.78;3.10;;;;;;;10.28;79.55;97942.13;5028118;28;20030;-71
2023/11/16 11:16:39;;;;;;;6.70;2.78;;;;;;;10.38;79.55;97935.00;5032101;28;20508;-72
2023/11/16 11:19:04;;;;;;;7.68;3.17;;;;;;;10.42;79.14;97929.94;5030230;28;20060;-71
2023/11/16 11:21:32;;;;;;;10.63;3.63;;;;;;;10.50;78.81;97921.44;5033351;28;20418;-70
2023/11/16 11:24:05;;;;;;;9.25;3.17;;;;;;;10.63;78.51;97923.75;5033511;28;20401;-73
2023/11/16 11:26:40;;;;;;;10.70;4.88;;;;;;;10.80;77.65;97900.25;5032473;28;20116;-71
2023/11/16 11:29:05;;;;;;;7.68;3.80;;;;;;;10.86;77.58;97901.91;5033280;28;20120;-71
2023/11/16 11:32:14;;;;;;;6.90;4.00;;;;;;;10.89;77.09;97890.66;5032056;28;20128;-71